createdAt,value
2023-05-13T00:00:11.606Z,8.40
2023-05-13T00:02:40.983Z,8.37
2023-05-13T00:05:09.876Z,8.31
2023-05-13T00:07:37.808Z,8.32
2023-05-13T00:10:06.100Z,8.27
2023-05-13T00:12:34.078Z,8.23
2023-05-13T00:15:02.226Z,8.12
2023-05-13T00:17:30.319Z,8.17
2023-05-13T00:19:59.755Z,8.14
2023-05-13T00:22:27.664Z,8.17
2023-05-13T00:24:57.906Z,8.10
2023-05-13T00:27:25.927Z,8.19
2023-05-13T00:29:53.963Z,8.30
2023-05-13T00:32:22.065Z,8.07
2023-05-13T00:34:49.990Z,8.23
2023-05-13T00:37:19.286Z,7.99
2023-05-13T00:39:47.223Z,8.12
2023-05-13T00:42:15.408Z,8.21
2023-05-13T00:44:43.344Z,8.04
2023-05-13T00:47:12.639Z,8.24
2023-05-13T00:49:40.891Z,8.28
2023-05-13T00:52:08.829Z,8.16
2023-05-13T00:54:38.111Z,8.40
2023-05-13T00:57:06.504Z,8.38
2023-05-13T00:59:34.534Z,8.63
2023-05-13T01:02:11.531Z,8.56
2023-05-13T01:04:45.720Z,8.40
2023-05-13T01:07:23.540Z,8.48
2023-05-13T01:10:02.628Z,8.32
2023-05-13T01:12:34.028Z,8.18
2023-05-13T01:15:07.148Z,8.14
2023-05-13T01:17:40.761Z,8.01
2023-05-13T01:20:10.004Z,8.01
2023-05-13T01:22:39.371Z,8.06
2023-05-13T01:25:08.047Z,8.27
2023-05-13T01:27:36.114Z,8.24
2023-05-13T01:30:04.924Z,8.37
2023-05-13T01:32:33.173Z,8.36
2023-05-13T01:35:02.618Z,8.41
2023-05-13T01:37:31.405Z,8.46
2023-05-13T01:40:01.011Z,8.53
2023-05-13T01:42:31.304Z,8.58
2023-05-13T01:44:59.280Z,8.62
2023-05-13T01:47:27.237Z,8.71
2023-05-13T01:49:55.276Z,8.73
2023-05-13T01:52:23.173Z,8.57
2023-05-13T01:54:51.168Z,8.80
2023-05-13T01:57:23.598Z,8.77
2023-05-13T01:59:51.514Z,8.82
2023-05-13T02:02:19.595Z,8.95
2023-05-13T02:04:47.633Z,8.98
2023-05-13T02:07:15.558Z,8.77
2023-05-13T02:09:43.624Z,8.79
2023-05-13T02:12:11.505Z,8.50
2023-05-13T02:14:40.837Z,8.74
2023-05-13T02:17:08.704Z,8.76
2023-05-13T02:19:36.752Z,8.76
2023-05-13T02:22:04.861Z,8.66
2023-05-13T02:24:32.872Z,8.73
2023-05-13T02:27:00.936Z,8.75
2023-05-13T02:29:28.852Z,8.81
2023-05-13T02:31:58.191Z,8.76
2023-05-13T02:34:26.481Z,8.72
2023-05-13T02:36:54.465Z,8.62
2023-05-13T02:39:22.485Z,8.40
2023-05-13T02:41:50.690Z,8.44
2023-05-13T02:44:18.643Z,8.44
2023-05-13T02:46:46.613Z,8.37
2023-05-13T02:49:15.889Z,8.49
2023-05-13T02:51:43.920Z,8.42
2023-05-13T02:54:11.882Z,8.44
2023-05-13T02:56:39.917Z,8.29
2023-05-13T02:59:07.904Z,8.39
2023-05-13T03:01:35.882Z,8.60
2023-05-13T03:04:03.879Z,8.50
2023-05-13T03:06:33.138Z,8.61
2023-05-13T03:09:01.093Z,8.59
2023-05-13T03:11:29.062Z,8.48
2023-05-13T03:13:56.927Z,8.45
2023-05-13T03:16:25.015Z,8.52
2023-05-13T03:18:52.883Z,8.54
2023-05-13T03:21:20.999Z,8.68
2023-05-13T03:23:50.288Z,8.61
2023-05-13T03:26:18.229Z,8.67
2023-05-13T03:28:46.336Z,8.82
2023-05-13T03:31:14.536Z,8.56
2023-05-13T03:33:42.550Z,8.64
2023-05-13T03:36:10.701Z,8.65
2023-05-13T03:38:38.616Z,8.60
2023-05-13T03:41:07.914Z,8.59
2023-05-13T03:43:35.849Z,8.57
2023-05-13T03:46:03.830Z,8.63
2023-05-13T03:48:31.812Z,8.53
2023-05-13T03:50:59.756Z,8.39
2023-05-13T03:53:27.834Z,8.48
2023-05-13T03:55:55.744Z,8.72
2023-05-13T03:58:25.009Z,8.73
2023-05-13T04:00:53.003Z,8.61
2023-05-13T04:03:20.961Z,8.74
2023-05-13T04:05:49.578Z,8.70
2023-05-13T04:08:17.489Z,8.67
2023-05-13T04:10:45.804Z,8.60
2023-05-13T04:13:13.787Z,8.81
2023-05-13T04:15:43.040Z,8.59
2023-05-13T04:18:11.115Z,8.91
2023-05-13T04:20:39.593Z,8.99
2023-05-13T04:23:07.697Z,8.92
2023-05-13T04:25:36.767Z,8.87
2023-05-13T04:28:04.781Z,8.82
2023-05-13T04:30:32.772Z,8.70
2023-05-13T04:33:02.141Z,8.77
2023-05-13T04:35:30.229Z,8.74
2023-05-13T04:37:58.221Z,8.76
2023-05-13T04:40:26.559Z,8.76
2023-05-13T04:42:55.591Z,8.67
2023-05-13T04:45:23.875Z,8.73
2023-05-13T04:47:52.038Z,8.74
2023-05-13T04:50:21.586Z,8.95
2023-05-13T04:52:50.109Z,9.13
2023-05-13T04:55:18.467Z,9.19
2023-05-13T04:57:46.366Z,9.37
2023-05-13T05:00:15.554Z,9.57
2023-05-13T05:02:43.548Z,9.61
2023-05-13T05:05:11.474Z,9.82
2023-05-13T05:07:41.954Z,10.07
2023-05-13T05:10:10.845Z,10.09
2023-05-13T05:12:39.073Z,10.11
2023-05-13T05:15:11.543Z,10.02
2023-05-13T05:17:39.721Z,10.10
2023-05-13T05:20:09.015Z,10.09
2023-05-13T05:22:36.887Z,10.14
2023-05-13T05:25:06.902Z,10.29
2023-05-13T05:28:02.263Z,10.31
2023-05-13T05:30:30.592Z,10.26
2023-05-13T05:32:58.634Z,10.30
2023-05-13T05:35:26.638Z,10.50
2023-05-13T05:37:54.684Z,10.60
2023-05-13T05:40:24.240Z,10.87
2023-05-13T05:42:52.176Z,11.04
2023-05-13T05:45:20.666Z,11.21
2023-05-13T05:47:54.206Z,11.34
2023-05-13T05:50:22.662Z,11.59
2023-05-13T05:52:50.804Z,11.82
2023-05-13T05:55:19.098Z,11.78
2023-05-13T05:57:48.537Z,11.64
2023-05-13T06:00:17.255Z,11.60
2023-05-13T06:02:46.198Z,11.73
2023-05-13T06:05:14.324Z,11.51
2023-05-13T06:07:42.428Z,11.68
2023-05-13T06:10:11.170Z,11.80
2023-05-13T06:12:40.984Z,11.89
2023-05-13T06:15:11.722Z,11.97
2023-05-13T06:17:40.270Z,11.95
2023-05-13T06:20:09.127Z,11.91
2023-05-13T06:22:37.031Z,12.03
2023-05-13T06:25:05.993Z,12.10
2023-05-13T06:27:34.519Z,11.96
2023-05-13T06:30:03.202Z,12.00
2023-05-13T06:32:32.622Z,11.94
2023-05-13T06:35:00.625Z,11.90
2023-05-13T06:37:28.543Z,11.82
2023-05-13T06:39:56.774Z,11.97
2023-05-13T06:42:24.738Z,11.77
2023-05-13T06:44:53.310Z,12.02
2023-05-13T06:47:23.171Z,12.04
2023-05-13T06:49:53.441Z,12.21
2023-05-13T06:52:21.419Z,12.24
2023-05-13T06:54:49.541Z,12.42
2023-05-13T06:57:17.569Z,12.34
2023-05-13T06:59:46.298Z,12.42
2023-05-13T07:02:14.581Z,12.47
2023-05-13T07:04:42.570Z,12.47
2023-05-13T07:07:11.883Z,12.33
2023-05-13T07:09:39.754Z,12.30
2023-05-13T07:12:08.963Z,12.50
2023-05-13T07:14:36.998Z,12.62
2023-05-13T07:17:05.506Z,12.35
2023-05-13T07:19:33.407Z,12.61
2023-05-13T07:22:01.303Z,12.63
2023-05-13T07:24:31.980Z,12.80
2023-05-13T07:27:01.349Z,12.91
2023-05-13T07:29:29.537Z,12.86
2023-05-13T07:31:57.482Z,12.87
2023-05-13T07:34:25.536Z,12.88
2023-05-13T07:36:53.507Z,12.92
2023-05-13T07:39:21.436Z,13.06
2023-05-13T07:41:50.958Z,13.13
2023-05-13T07:44:19.459Z,13.28
2023-05-13T07:46:49.363Z,13.44
2023-05-13T07:49:17.415Z,13.42
2023-05-13T07:51:45.442Z,13.32
2023-05-13T07:54:13.395Z,13.65
2023-05-13T07:56:41.313Z,13.81
2023-05-13T07:59:10.635Z,13.69
2023-05-13T08:01:39.006Z,13.64
2023-05-13T08:04:07.286Z,13.38
2023-05-13T08:06:35.381Z,13.34
2023-05-13T08:09:03.704Z,13.23
2023-05-13T08:11:31.714Z,13.07
2023-05-13T08:13:59.603Z,13.02
2023-05-13T08:16:28.989Z,12.98
2023-05-13T08:18:57.592Z,12.96
2023-05-13T08:21:25.640Z,13.17
2023-05-13T08:23:53.485Z,13.17
2023-05-13T08:26:21.357Z,13.29
2023-05-13T08:28:51.090Z,13.43
2023-05-13T08:31:21.924Z,13.47
2023-05-13T08:33:51.722Z,13.60
2023-05-13T08:36:19.710Z,13.81
2023-05-13T08:38:47.601Z,13.94
2023-05-13T08:41:16.810Z,14.08
2023-05-13T08:43:45.378Z,14.09
2023-05-13T08:46:13.635Z,14.19
2023-05-13T08:48:43.170Z,14.42
2023-05-13T08:51:13.595Z,14.66
2023-05-13T08:53:41.687Z,14.74
2023-05-13T08:56:10.416Z,14.92
2023-05-13T08:58:38.384Z,14.98
2023-05-13T09:01:07.812Z,15.21
2023-05-13T09:03:37.053Z,15.41
2023-05-13T09:06:05.763Z,15.30
2023-05-13T09:08:36.607Z,15.57
2023-05-13T09:11:04.924Z,15.81
2023-05-13T09:13:32.937Z,15.82
2023-05-13T09:16:00.805Z,15.66
2023-05-13T09:18:32.400Z,15.91
2023-05-13T09:21:23.642Z,15.80
2023-05-13T09:23:57.467Z,15.97
2023-05-13T09:26:28.995Z,16.00
2023-05-13T09:29:19.948Z,16.05
2023-05-13T09:31:49.915Z,15.92
2023-05-13T09:34:26.791Z,15.96
2023-05-13T09:37:05.804Z,16.13
2023-05-13T09:39:42.770Z,16.20
2023-05-13T09:42:16.877Z,16.24
2023-05-13T09:44:45.742Z,16.37
2023-05-13T09:47:14.706Z,16.33
2023-05-13T09:49:43.841Z,16.37
2023-05-13T09:52:12.338Z,16.38
2023-05-13T09:54:41.826Z,16.56
2023-05-13T09:57:09.742Z,16.90
2023-05-13T09:59:37.787Z,16.93
2023-05-13T10:02:08.192Z,16.85
2023-05-13T10:04:36.392Z,16.81
2023-05-13T10:07:06.056Z,17.20
2023-05-13T10:09:39.675Z,17.04
2023-05-13T10:12:11.424Z,17.25
2023-05-13T10:14:39.921Z,17.29
2023-05-13T10:17:09.279Z,17.63
2023-05-13T10:19:38.238Z,17.89
2023-05-13T10:22:07.595Z,18.00
2023-05-13T10:24:38.508Z,18.10
2023-05-13T10:27:09.460Z,18.08
2023-05-13T10:29:39.154Z,18.44
2023-05-13T10:32:09.172Z,18.46
2023-05-13T10:34:39.123Z,18.52
2023-05-13T10:37:26.880Z,18.65
2023-05-13T10:40:18.821Z,18.90
2023-05-13T10:42:55.829Z,18.86
2023-05-13T10:45:27.519Z,18.77
2023-05-13T10:47:57.352Z,18.81
2023-05-13T10:50:26.184Z,18.60
2023-05-13T10:52:57.797Z,18.88
2023-05-13T10:55:28.756Z,18.85
2023-05-13T10:58:16.920Z,19.46
2023-05-13T11:00:46.686Z,20.09
2023-05-13T11:03:33.420Z,20.59
2023-05-13T11:06:15.373Z,21.35
2023-05-13T11:08:45.889Z,21.78
2023-05-13T11:11:35.604Z,22.78
2023-05-13T11:14:17.792Z,23.36
2023-05-13T11:16:54.957Z,23.13
2023-05-13T11:19:24.800Z,23.76
2023-05-13T11:21:54.162Z,23.71
2023-05-13T11:24:23.365Z,23.78
2023-05-13T11:26:53.252Z,23.79
2023-05-13T11:29:48.746Z,23.68
2023-05-13T11:32:16.617Z,24.30
2023-05-13T11:34:52.446Z,24.52
2023-05-13T11:37:20.846Z,24.37
2023-05-13T11:39:48.844Z,24.42
2023-05-13T11:42:17.847Z,24.71
2023-05-13T11:44:48.082Z,24.83
2023-05-13T11:47:16.010Z,24.52
2023-05-13T11:49:46.487Z,24.81
2023-05-13T11:52:16.078Z,25.03
2023-05-13T11:54:46.481Z,24.56
2023-05-13T11:57:21.287Z,25.02
2023-05-13T11:59:58.693Z,25.17
2023-05-13T12:02:28.350Z,25.26
2023-05-13T12:04:57.033Z,24.89
2023-05-13T12:07:26.171Z,25.40
2023-05-13T12:09:56.732Z,25.30
2023-05-13T12:12:24.820Z,24.75
2023-05-13T12:14:53.152Z,25.23
2023-05-13T12:17:25.060Z,25.76
2023-05-13T12:20:13.426Z,25.79
2023-05-13T12:22:57.651Z,25.95
2023-05-13T12:25:43.281Z,25.60
2023-05-13T12:28:16.451Z,25.17
2023-05-13T12:30:51.395Z,25.64
2023-05-13T12:33:22.115Z,25.39
2023-05-13T12:35:52.598Z,25.34
2023-05-13T12:38:22.327Z,26.16
2023-05-13T12:40:53.124Z,26.48
2023-05-13T12:43:22.095Z,26.13
2023-05-13T12:45:55.130Z,26.47
2023-05-13T12:48:26.872Z,26.93
2023-05-13T12:50:56.418Z,26.26
2023-05-13T12:53:24.460Z,25.69
2023-05-13T12:55:52.987Z,25.09
2023-05-13T12:58:21.009Z,24.82
2023-05-13T13:00:49.135Z,23.50
2023-05-13T13:03:17.220Z,24.29
2023-05-13T13:05:46.820Z,24.24
2023-05-13T13:08:15.023Z,23.74
2023-05-13T13:10:43.087Z,23.06
2023-05-13T13:13:11.073Z,23.04
2023-05-13T13:15:39.478Z,23.16
2023-05-13T13:18:07.682Z,22.88
2023-05-13T13:20:37.974Z,22.55
2023-05-13T13:23:07.229Z,22.35
2023-05-13T13:25:35.193Z,22.45
2023-05-13T13:28:03.297Z,22.40
2023-05-13T13:30:31.751Z,22.42
2023-05-13T13:32:59.990Z,22.38
2023-05-13T13:35:27.994Z,22.67
2023-05-13T13:37:56.253Z,22.84
2023-05-13T13:40:25.724Z,23.18
2023-05-13T13:42:53.797Z,23.65
2023-05-13T13:45:24.180Z,24.34
2023-05-13T13:47:52.238Z,24.87
2023-05-13T13:50:20.261Z,25.67
2023-05-13T13:52:48.257Z,26.19
2023-05-13T13:55:16.359Z,26.38
2023-05-13T13:57:45.588Z,26.83
2023-05-13T14:00:14.506Z,26.08
2023-05-13T14:02:42.623Z,24.89
2023-05-13T14:05:10.951Z,25.14
2023-05-13T14:07:39.040Z,25.61
2023-05-13T14:10:08.395Z,26.59
2023-05-13T14:12:36.922Z,26.95
2023-05-13T14:15:08.558Z,27.18
2023-05-13T14:17:36.943Z,27.19
2023-05-13T14:20:10.267Z,27.11
2023-05-13T14:22:38.575Z,26.66
2023-05-13T14:25:07.274Z,25.89
2023-05-13T14:27:36.571Z,25.03
2023-05-13T14:30:06.884Z,24.62
2023-05-13T14:32:38.360Z,23.97
2023-05-13T14:35:07.221Z,23.93
2023-05-13T14:37:41.924Z,22.82
2023-05-13T14:40:11.249Z,22.34
2023-05-13T14:42:41.416Z,22.12
2023-05-13T14:45:15.344Z,21.52
2023-05-13T14:47:45.817Z,21.55
2023-05-13T14:50:15.219Z,21.58
2023-05-13T14:52:43.118Z,21.55
2023-05-13T14:55:14.100Z,21.62
2023-05-13T14:57:42.152Z,21.61
2023-05-13T15:00:14.719Z,21.53
2023-05-13T15:02:45.648Z,21.30
2023-05-13T15:05:15.955Z,21.15
2023-05-13T15:07:44.159Z,21.19
2023-05-13T15:10:12.519Z,20.96
2023-05-13T15:12:42.541Z,20.85
2023-05-13T15:15:13.100Z,20.66
2023-05-13T15:17:41.415Z,20.87
2023-05-13T15:20:10.205Z,20.99
2023-05-13T15:22:39.959Z,21.00
2023-05-13T15:25:11.566Z,20.96
2023-05-13T15:27:39.750Z,20.96
2023-05-13T15:30:11.265Z,21.16
2023-05-13T15:32:40.570Z,21.04
2023-05-13T15:35:14.479Z,21.16
2023-05-13T15:37:43.677Z,21.07
2023-05-13T15:40:12.888Z,20.82
2023-05-13T15:42:44.690Z,20.49
2023-05-13T15:45:15.143Z,20.53
2023-05-13T15:47:46.526Z,20.57
2023-05-13T15:50:14.644Z,20.35
2023-05-13T15:52:42.732Z,20.38
2023-05-13T15:55:11.179Z,20.18
2023-05-13T15:57:40.270Z,19.95
2023-05-13T16:00:09.713Z,20.12
2023-05-13T16:02:39.459Z,20.23
2023-05-13T16:05:09.818Z,20.34
2023-05-13T16:07:37.748Z,20.46
2023-05-13T16:10:07.279Z,20.34
2023-05-13T16:12:35.191Z,20.28
2023-05-13T16:15:03.123Z,20.21
2023-05-13T16:17:31.152Z,19.88
2023-05-13T16:19:59.875Z,19.81
2023-05-13T16:22:33.834Z,19.75
2023-05-13T16:25:03.779Z,19.64
2023-05-13T16:27:32.536Z,19.53
2023-05-13T16:32:44.006Z,19.47
2023-05-13T16:35:12.737Z,19.44
2023-05-13T16:37:44.771Z,19.17
2023-05-13T16:43:04.827Z,19.11
2023-05-13T16:45:33.476Z,19.15
2023-05-13T16:48:01.656Z,19.09
2023-05-13T16:50:59.470Z,18.97
2023-05-13T16:58:51.395Z,18.53
2023-05-13T17:01:19.565Z,18.63
2023-05-13T17:03:47.595Z,18.56
2023-05-13T17:06:15.581Z,18.50
2023-05-13T17:08:44.834Z,18.29
2023-05-13T17:11:16.620Z,18.27
2023-05-13T17:13:44.596Z,18.21
2023-05-13T17:16:13.660Z,18.10
2023-05-13T17:18:41.687Z,18.10
2023-05-13T17:21:12.568Z,18.02
2023-05-13T17:23:40.978Z,17.99
2023-05-13T17:26:10.311Z,18.00
2023-05-13T17:28:40.195Z,17.94
2023-05-13T17:31:09.352Z,17.85
2023-05-13T17:33:37.213Z,17.79
2023-05-13T17:36:06.538Z,17.73
2023-05-13T17:38:34.549Z,17.67
2023-05-13T17:41:05.277Z,17.55
2023-05-13T17:43:34.685Z,17.51
2023-05-13T17:46:02.620Z,17.54
2023-05-13T17:48:33.175Z,17.49
2023-05-13T17:51:01.599Z,17.47
2023-05-13T17:53:29.950Z,17.38
2023-05-13T17:55:59.385Z,17.15
2023-05-13T17:58:27.375Z,17.00
2023-05-13T18:00:56.834Z,17.14
2023-05-13T18:03:24.731Z,17.18
2023-05-13T18:05:52.761Z,17.16
2023-05-13T18:08:20.772Z,16.96
2023-05-13T18:10:48.757Z,16.87
2023-05-13T18:13:17.342Z,16.95
2023-05-13T18:15:45.378Z,16.82
2023-05-13T18:18:16.324Z,16.51
2023-05-13T18:20:44.330Z,16.48
2023-05-13T18:23:14.997Z,16.44
2023-05-13T18:25:54.923Z,16.51
2023-05-13T18:28:26.207Z,16.39
2023-05-13T18:30:57.200Z,16.42
2023-05-13T18:33:27.496Z,16.30
2023-05-13T18:35:55.556Z,16.18
2023-05-13T18:38:23.637Z,16.17
2023-05-13T18:40:51.601Z,15.98
2023-05-13T18:43:19.593Z,16.05
2023-05-13T18:45:48.325Z,15.95
2023-05-13T18:48:16.296Z,16.01
2023-05-13T18:50:46.294Z,15.98
2023-05-13T18:53:14.769Z,15.91
2023-05-13T18:55:42.686Z,15.97
2023-05-13T18:58:10.849Z,15.95
2023-05-13T19:00:38.669Z,15.87
2023-05-13T19:03:07.401Z,15.84
2023-05-13T19:05:35.996Z,15.77
2023-05-13T19:08:06.329Z,15.57
2023-05-13T19:10:39.955Z,15.81
2023-05-13T19:13:11.297Z,15.53
2023-05-13T19:15:39.501Z,15.71
2023-05-13T19:18:07.508Z,15.72
2023-05-13T19:20:35.741Z,15.63
2023-05-13T19:23:05.312Z,15.58
2023-05-13T19:25:33.262Z,15.60
2023-05-13T19:28:01.528Z,15.47
2023-05-13T19:30:29.624Z,15.49
2023-05-13T19:32:57.809Z,15.57
2023-05-13T19:35:25.770Z,15.56
2023-05-13T19:37:53.790Z,15.48
2023-05-13T19:40:26.407Z,15.47
2023-05-13T19:42:56.499Z,15.34
2023-05-13T19:45:25.244Z,15.47
2023-05-13T19:47:53.264Z,15.47
2023-05-13T19:50:21.555Z,15.45
2023-05-13T19:52:49.577Z,15.54
2023-05-13T19:55:20.337Z,15.43
2023-05-13T19:57:49.678Z,15.42
2023-05-13T20:00:18.063Z,15.37
2023-05-13T20:02:46.480Z,15.36
2023-05-13T20:05:14.424Z,15.23
2023-05-13T20:07:42.390Z,15.35
2023-05-13T20:10:12.024Z,15.33
2023-05-13T20:12:40.062Z,15.22
2023-05-13T20:15:10.386Z,15.30
2023-05-13T20:17:38.769Z,15.23
2023-05-13T20:20:08.169Z,15.25
2023-05-13T20:22:36.392Z,15.16
2023-05-13T20:25:04.365Z,15.08
2023-05-13T20:27:32.416Z,14.98
2023-05-13T20:30:01.207Z,15.09
2023-05-13T20:32:31.178Z,15.07
2023-05-13T20:34:59.162Z,15.12
2023-05-13T20:37:27.142Z,15.09
2023-05-13T20:39:55.058Z,15.08
2023-05-13T20:42:23.513Z,14.93
2023-05-13T20:44:52.056Z,15.08
2023-05-13T20:47:21.199Z,15.06
2023-05-13T20:49:50.558Z,14.95
2023-05-13T20:52:18.674Z,14.92
2023-05-13T20:54:46.644Z,14.91
2023-05-13T20:57:14.544Z,14.80
2023-05-13T20:59:42.476Z,14.76
2023-05-13T21:02:10.466Z,14.73
2023-05-13T21:04:38.392Z,14.68
2023-05-13T21:07:07.791Z,14.53
2023-05-13T21:09:35.768Z,14.59
2023-05-13T21:12:03.643Z,14.51
2023-05-13T21:14:31.572Z,14.57
2023-05-13T21:17:03.024Z,14.55
2023-05-13T21:19:31.450Z,14.60
2023-05-13T21:22:01.639Z,14.60
2023-05-13T21:24:30.929Z,14.52
2023-05-13T21:26:58.771Z,14.55
2023-05-13T21:29:26.722Z,14.60
2023-05-13T21:31:54.629Z,14.55
2023-05-13T21:34:22.743Z,14.54
2023-05-13T21:36:50.714Z,14.60
2023-05-13T21:39:18.801Z,14.52
2023-05-13T21:41:48.173Z,14.33
2023-05-13T21:44:16.300Z,14.51
2023-05-13T21:46:44.148Z,14.52
2023-05-13T21:49:12.252Z,14.57
2023-05-13T21:51:40.395Z,14.60
2023-05-13T21:54:08.411Z,14.65
2023-05-13T21:56:36.316Z,14.53
2023-05-13T21:59:05.549Z,14.60
2023-05-13T22:01:33.430Z,14.54
2023-05-13T22:04:01.301Z,14.54
2023-05-13T22:06:29.276Z,14.65
2023-05-13T22:08:57.160Z,14.62
2023-05-13T22:11:25.130Z,14.59
2023-05-13T22:13:52.976Z,14.55
2023-05-13T22:16:22.443Z,14.52
2023-05-13T22:18:50.981Z,14.42
2023-05-13T22:21:19.267Z,14.34
2023-05-13T22:23:47.433Z,14.35
2023-05-13T22:26:15.431Z,14.40
2023-05-13T22:28:43.694Z,14.35
2023-05-13T22:31:11.639Z,14.14
2023-05-13T22:33:40.905Z,14.20
2023-05-13T22:36:09.061Z,14.26
2023-05-13T22:38:37.287Z,14.25
2023-05-13T22:41:05.238Z,14.20
2023-05-13T22:43:33.682Z,14.27
2023-05-13T22:46:01.707Z,14.27
2023-05-13T22:48:29.608Z,14.20
2023-05-13T22:50:58.848Z,14.16
2023-05-13T22:53:26.818Z,14.19
2023-05-13T22:55:54.694Z,14.15
2023-05-13T22:58:22.732Z,14.15
2023-05-13T23:00:50.909Z,14.19
2023-05-13T23:03:18.906Z,14.11
2023-05-13T23:05:46.821Z,14.11
2023-05-13T23:08:16.127Z,14.06
2023-05-13T23:10:43.989Z,14.04
2023-05-13T23:13:11.880Z,14.03
2023-05-13T23:15:39.827Z,13.97
2023-05-13T23:18:07.823Z,14.01
2023-05-13T23:20:35.699Z,14.05
2023-05-13T23:23:03.670Z,14.00
2023-05-13T23:25:32.896Z,13.95
2023-05-13T23:28:00.807Z,14.01
2023-05-13T23:30:28.708Z,13.94
2023-05-13T23:32:56.632Z,13.90
2023-05-13T23:35:24.593Z,13.89
2023-05-13T23:37:52.481Z,13.86
2023-05-13T23:40:20.641Z,13.86
2023-05-13T23:42:52.872Z,13.83
2023-05-13T23:45:20.912Z,13.81
2023-05-13T23:47:48.958Z,13.84
2023-05-13T23:50:17.018Z,13.85
2023-05-13T23:52:44.925Z,13.85
2023-05-13T23:55:12.885Z,13.85
2023-05-13T23:57:40.765Z,13.85
